createdAt,value
2022-10-04T00:00:45.207Z,9.3
2022-10-04T00:03:11.350Z,9.3
2022-10-04T00:05:37.401Z,9.3
2022-10-04T00:08:03.548Z,9.3
2022-10-04T00:10:28.669Z,9.3
2022-10-04T00:12:54.723Z,9.2
2022-10-04T00:15:20.830Z,9.2
2022-10-04T00:17:46.898Z,9.2
2022-10-04T00:20:13.032Z,9.2
2022-10-04T00:22:39.140Z,9.2
2022-10-04T00:25:05.232Z,9.2
2022-10-04T00:27:31.274Z,9.2
2022-10-04T00:29:57.397Z,9.2
2022-10-04T00:32:23.492Z,9.1
2022-10-04T00:34:49.564Z,9.1
2022-10-04T00:37:15.683Z,9.1
2022-10-04T00:39:41.752Z,9
2022-10-04T00:42:06.931Z,9
2022-10-04T00:44:32.986Z,9
2022-10-04T00:46:59.064Z,9
2022-10-04T00:49:25.174Z,9
2022-10-04T00:51:51.257Z,9
2022-10-04T00:54:17.370Z,9
2022-10-04T00:56:43.458Z,8.9
2022-10-04T00:59:09.572Z,8.9
2022-10-04T01:01:35.698Z,8.9
2022-10-04T01:04:01.773Z,8.9
2022-10-04T01:06:27.822Z,8.9
2022-10-04T01:08:54.029Z,8.9
2022-10-04T01:11:20.043Z,8.9
2022-10-04T01:13:45.126Z,8.8
2022-10-04T01:16:11.270Z,8.8
2022-10-04T01:18:37.327Z,8.8
2022-10-04T01:21:03.480Z,8.8
2022-10-04T01:23:29.522Z,8.8
2022-10-04T01:25:55.673Z,8.8
2022-10-04T01:28:21.713Z,8.8
2022-10-04T01:30:47.801Z,8.8
2022-10-04T01:33:13.956Z,8.8
2022-10-04T01:35:40.005Z,8.7
2022-10-04T01:38:06.143Z,8.7
2022-10-04T01:40:32.177Z,8.7
2022-10-04T01:42:58.318Z,8.7
2022-10-04T01:45:23.399Z,8.7
2022-10-04T01:47:49.485Z,8.6
2022-10-04T01:50:15.601Z,8.6
2022-10-04T01:52:41.683Z,8.6
2022-10-04T01:55:07.803Z,8.5
2022-10-04T01:57:33.869Z,8.5
2022-10-04T01:59:59.999Z,8.5
2022-10-04T02:02:26.070Z,8.5
2022-10-04T02:04:52.207Z,8.5
2022-10-04T02:07:18.245Z,8.5
2022-10-04T02:09:44.447Z,8.5
2022-10-04T02:12:10.447Z,8.5
2022-10-04T02:14:36.537Z,8.5
2022-10-04T02:17:01.691Z,8.5
2022-10-04T02:19:27.749Z,8.4
2022-10-04T02:21:53.895Z,8.4
2022-10-04T02:24:19.949Z,8.4
2022-10-04T02:26:46.094Z,8.4
2022-10-04T02:29:12.158Z,8.4
2022-10-04T02:31:38.254Z,8.4
2022-10-04T02:36:30.416Z,8.4
2022-10-04T02:38:56.544Z,8.4
2022-10-04T02:41:22.619Z,8.4
2022-10-04T02:43:48.742Z,8.4
2022-10-04T02:46:14.805Z,8.4
2022-10-04T02:48:39.960Z,8.4
2022-10-04T02:51:06.033Z,8.3
2022-10-04T02:53:32.116Z,8.3
2022-10-04T02:55:58.237Z,8.3
2022-10-04T02:58:24.309Z,8.3
2022-10-04T03:00:50.436Z,8.3
2022-10-04T03:03:16.534Z,8.3
2022-10-04T03:05:42.658Z,8.3
2022-10-04T03:08:08.696Z,8.3
2022-10-04T03:10:34.831Z,8.2
2022-10-04T03:13:00.884Z,8.2
2022-10-04T03:15:27.008Z,8.2
2022-10-04T03:17:53.105Z,8.1
2022-10-04T03:20:18.209Z,8.1
2022-10-04T03:22:44.320Z,8.1
2022-10-04T03:25:10.405Z,8.1
2022-10-04T03:27:36.530Z,8.1
2022-10-04T03:30:02.579Z,8.1
2022-10-04T03:32:28.707Z,8
2022-10-04T03:34:54.784Z,8
2022-10-04T03:37:20.857Z,8
2022-10-04T03:39:46.997Z,8
2022-10-04T03:42:13.042Z,8
2022-10-04T03:44:39.178Z,7.9
2022-10-04T03:47:05.232Z,7.9
2022-10-04T03:49:31.398Z,7.9
2022-10-04T03:51:56.463Z,7.9
2022-10-04T03:54:22.544Z,7.9
2022-10-04T03:56:48.658Z,7.9
2022-10-04T03:59:14.735Z,7.8
2022-10-04T04:01:40.863Z,7.8
2022-10-04T04:04:06.919Z,7.8
2022-10-04T04:06:32.039Z,7.8
2022-10-04T04:08:58.146Z,7.8
2022-10-04T04:11:24.261Z,7.8
2022-10-04T04:13:50.348Z,7.8
2022-10-04T04:16:16.415Z,7.8
2022-10-04T04:18:42.549Z,7.8
2022-10-04T04:21:08.611Z,7.8
2022-10-04T04:23:34.764Z,7.8
2022-10-04T04:26:00.800Z,7.8
2022-10-04T04:28:26.891Z,7.8
2022-10-04T04:30:53.266Z,7.8
2022-10-04T04:33:19.157Z,7.8
2022-10-04T04:35:45.198Z,7.8
2022-10-04T04:38:10.325Z,7.7
2022-10-04T04:40:36.439Z,7.7
2022-10-04T04:43:02.507Z,7.7
2022-10-04T04:45:28.584Z,7.7
2022-10-04T04:47:54.716Z,7.7
2022-10-04T04:50:20.773Z,7.7
2022-10-04T04:52:46.884Z,7.7
2022-10-04T04:55:12.958Z,7.7
2022-10-04T04:57:39.088Z,7.7
2022-10-04T05:00:05.147Z,7.7
2022-10-04T05:02:31.290Z,7.7
2022-10-04T05:04:57.339Z,7.6
2022-10-04T05:07:23.499Z,7.6
2022-10-04T05:09:48.594Z,7.6
2022-10-04T05:12:14.654Z,7.6
2022-10-04T05:14:40.800Z,7.6
2022-10-04T05:17:06.833Z,7.6
2022-10-04T05:19:32.978Z,7.6
2022-10-04T05:21:59.063Z,7.5
2022-10-04T05:24:25.206Z,7.5
2022-10-04T05:26:51.218Z,7.5
2022-10-04T05:29:17.382Z,7.5
2022-10-04T05:31:43.423Z,7.5
2022-10-04T05:34:09.522Z,7.5
2022-10-04T05:36:35.626Z,7.5
2022-10-04T05:39:01.709Z,7.5
2022-10-04T05:41:26.887Z,7.5
2022-10-04T05:43:52.949Z,7.5
2022-10-04T05:46:19.004Z,7.5
2022-10-04T05:48:45.112Z,7.5
2022-10-04T05:51:11.240Z,7.5
2022-10-04T05:53:37.310Z,7.5
2022-10-04T05:56:03.448Z,7.5
2022-10-04T05:58:29.536Z,7.6
2022-10-04T06:00:55.588Z,7.6
2022-10-04T06:03:21.719Z,7.6
2022-10-04T06:05:47.768Z,7.6
2022-10-04T06:08:13.919Z,7.6
2022-10-04T06:10:39.974Z,7.6
2022-10-04T06:13:05.110Z,7.5
2022-10-04T06:15:31.202Z,7.5
2022-10-04T06:20:23.472Z,7.6
2022-10-04T06:22:49.479Z,7.6
2022-10-04T06:25:15.638Z,7.6
2022-10-04T06:30:07.808Z,7.7
2022-10-04T06:32:33.857Z,7.7
2022-10-04T06:34:59.935Z,7.8
2022-10-04T06:37:26.099Z,7.8
2022-10-04T06:39:52.128Z,7.9
2022-10-04T06:42:18.264Z,7.9
2022-10-04T06:44:44.434Z,8
2022-10-04T06:47:09.429Z,8
2022-10-04T06:49:35.599Z,8
2022-10-04T06:52:01.657Z,8.1
2022-10-04T06:54:27.771Z,8.1
2022-10-04T06:56:54.079Z,8.2
2022-10-04T06:59:19.945Z,8.2
2022-10-04T07:01:46.022Z,8.3
2022-10-04T07:04:12.189Z,8.3
2022-10-04T07:06:38.205Z,8.4
2022-10-04T07:09:04.294Z,8.4
2022-10-04T07:11:30.515Z,8.5
2022-10-04T07:13:56.582Z,8.5
2022-10-04T07:16:22.596Z,8.6
2022-10-04T07:18:47.682Z,8.6
2022-10-04T07:21:13.897Z,8.7
2022-10-04T07:23:39.944Z,8.7
2022-10-04T07:26:05.975Z,8.8
2022-10-04T07:28:32.082Z,8.8
2022-10-04T07:30:58.171Z,8.9
2022-10-04T07:33:24.280Z,8.9
2022-10-04T07:35:50.405Z,9
2022-10-04T07:38:16.484Z,9
2022-10-04T07:40:42.565Z,9
2022-10-04T07:43:08.753Z,9.1
2022-10-04T07:45:34.756Z,9.1
2022-10-04T07:48:00.946Z,9.2
2022-10-04T07:50:25.969Z,9.2
2022-10-04T07:52:52.086Z,9.2
2022-10-04T07:55:18.178Z,9.3
2022-10-04T07:57:44.244Z,9.3
2022-10-04T08:00:10.375Z,9.4
2022-10-04T08:02:36.490Z,9.4
2022-10-04T08:05:02.576Z,9.5
2022-10-04T08:07:28.620Z,9.6
2022-10-04T08:09:54.856Z,9.7
2022-10-04T08:12:20.826Z,9.8
2022-10-04T08:14:46.964Z,9.8
2022-10-04T08:17:13.023Z,9.9
2022-10-04T08:19:39.110Z,9.9
2022-10-04T08:22:04.300Z,10
2022-10-04T08:24:30.321Z,10
2022-10-04T08:26:56.442Z,10
2022-10-04T08:29:22.512Z,10.1
2022-10-04T08:31:48.592Z,10.1
2022-10-04T08:34:14.721Z,10.2
2022-10-04T08:36:40.946Z,10.2
2022-10-04T08:39:06.911Z,10.2
2022-10-04T08:41:32.996Z,10.3
2022-10-04T08:43:59.154Z,10.3
2022-10-04T08:46:25.169Z,10.3
2022-10-04T08:48:51.320Z,10.3
2022-10-04T08:51:17.359Z,10.3
2022-10-04T08:53:42.490Z,10.4
2022-10-04T08:56:08.610Z,10.4
2022-10-04T08:58:34.754Z,10.5
2022-10-04T09:01:00.802Z,10.5
2022-10-04T09:03:26.867Z,10.6
2022-10-04T09:05:53.005Z,10.6
2022-10-04T09:08:19.097Z,10.7
2022-10-04T09:10:45.134Z,10.7
2022-10-04T09:13:11.257Z,10.7
2022-10-04T09:15:37.330Z,10.8
2022-10-04T09:18:03.454Z,10.9
2022-10-04T09:20:29.568Z,10.9
2022-10-04T09:22:55.658Z,11
2022-10-04T09:25:20.741Z,11
2022-10-04T09:27:46.832Z,11.1
2022-10-04T09:30:12.939Z,11.2
2022-10-04T09:32:39.045Z,11.3
2022-10-04T09:35:05.159Z,11.3
2022-10-04T09:37:31.220Z,11.4
2022-10-04T09:39:57.340Z,11.5
2022-10-04T09:42:23.446Z,11.6
2022-10-04T09:44:49.545Z,11.7
2022-10-04T09:47:15.693Z,11.8
2022-10-04T09:49:41.686Z,11.9
2022-10-04T09:52:07.787Z,12
2022-10-04T09:54:33.904Z,12.1
2022-10-04T09:56:59.068Z,12.2
2022-10-04T09:59:25.138Z,12.3
2022-10-04T10:01:51.298Z,12.4
2022-10-04T10:04:17.275Z,12.5
2022-10-04T10:06:43.432Z,12.6
2022-10-04T10:09:09.518Z,12.7
2022-10-04T10:11:35.988Z,12.8
2022-10-04T10:14:01.733Z,13
2022-10-04T10:16:27.807Z,13
2022-10-04T10:18:54.015Z,13.1
2022-10-04T10:21:19.956Z,13.2
2022-10-04T10:23:46.086Z,13.3
2022-10-04T10:26:12.214Z,13.4
2022-10-04T10:28:37.257Z,13.5
2022-10-04T10:31:03.368Z,13.6
2022-10-04T10:33:29.444Z,13.7
2022-10-04T10:35:55.663Z,13.8
2022-10-04T10:38:21.624Z,13.9
2022-10-04T10:40:47.770Z,13.9
2022-10-04T10:43:13.817Z,14
2022-10-04T10:45:40.023Z,14.1
2022-10-04T10:48:06.028Z,14.2
2022-10-04T10:50:32.107Z,14.2
2022-10-04T10:52:58.219Z,14.2
2022-10-04T10:55:24.300Z,14.3
2022-10-04T10:57:50.461Z,14.3
2022-10-04T11:00:15.503Z,14.4
2022-10-04T11:02:41.596Z,14.4
2022-10-04T11:05:07.717Z,14.5
2022-10-04T11:07:33.897Z,14.5
2022-10-04T11:09:59.902Z,14.6
2022-10-04T11:12:25.974Z,14.6
2022-10-04T11:14:52.121Z,14.7
2022-10-04T11:17:18.203Z,14.7
2022-10-04T11:19:44.312Z,14.8
2022-10-04T11:22:10.378Z,14.9
2022-10-04T11:24:36.466Z,14.9
2022-10-04T11:27:02.602Z,15
2022-10-04T11:29:28.684Z,15
2022-10-04T11:31:53.794Z,15.1
2022-10-04T11:34:19.866Z,15.1
2022-10-04T11:36:46.016Z,15.2
2022-10-04T11:39:12.083Z,15.2
2022-10-04T11:41:38.206Z,15.3
2022-10-04T11:44:04.253Z,15.3
2022-10-04T11:46:30.331Z,15.4
2022-10-04T11:48:56.460Z,15.4
2022-10-04T11:51:22.547Z,15.5
2022-10-04T11:56:14.723Z,15.6
2022-10-04T11:58:40.855Z,15.7
2022-10-04T12:01:06.906Z,15.8
2022-10-04T12:03:32.018Z,15.9
2022-10-04T12:05:58.157Z,16
2022-10-04T12:08:24.216Z,16.1
2022-10-04T12:10:50.428Z,16.2
2022-10-04T12:13:16.394Z,16.4
2022-10-04T12:15:41.549Z,16.5
2022-10-04T12:18:07.618Z,16.6
2022-10-04T12:20:33.701Z,16.8
2022-10-04T12:22:59.825Z,16.9
2022-10-04T12:25:25.884Z,17
2022-10-04T12:27:52.055Z,17.1
2022-10-04T12:30:18.081Z,17.2
2022-10-04T12:32:44.228Z,17.3
2022-10-04T12:35:10.274Z,17.3
2022-10-04T12:37:36.507Z,17.3
2022-10-04T12:40:02.516Z,17.3
2022-10-04T12:42:28.557Z,17.4
2022-10-04T12:44:54.715Z,17.4
2022-10-04T12:47:19.763Z,17.4
2022-10-04T12:49:46.047Z,17.4
2022-10-04T12:52:12.052Z,17.4
2022-10-04T12:54:38.053Z,17.3
2022-10-04T12:57:04.242Z,17.3
2022-10-04T12:59:30.256Z,17.3
2022-10-04T13:01:56.357Z,17.3
2022-10-04T13:04:22.444Z,17.2
2022-10-04T13:06:48.658Z,17.2
2022-10-04T13:09:14.638Z,17.2
2022-10-04T13:11:40.775Z,17.2
2022-10-04T13:14:06.830Z,17.1
2022-10-04T13:16:32.966Z,17.1
2022-10-04T13:18:58.099Z,17.1
2022-10-04T13:21:24.119Z,17.1
2022-10-04T13:23:50.262Z,17.1
2022-10-04T13:26:16.322Z,17.1
2022-10-04T13:28:42.538Z,17
2022-10-04T13:31:08.507Z,17
2022-10-04T13:33:34.654Z,17
2022-10-04T13:36:00.722Z,17
2022-10-04T13:38:26.789Z,17
2022-10-04T13:40:52.896Z,17
2022-10-04T13:43:18.981Z,17
2022-10-04T13:45:45.110Z,17
2022-10-04T13:48:11.179Z,17
2022-10-04T13:50:36.344Z,17
2022-10-04T13:53:02.387Z,17.1
2022-10-04T13:55:28.462Z,17.1
2022-10-04T13:57:54.594Z,17.1
2022-10-04T14:00:20.708Z,17.1
2022-10-04T14:02:46.830Z,17.1
2022-10-04T14:05:12.865Z,17.1
2022-10-04T14:07:39.012Z,17.1
2022-10-04T14:10:05.045Z,17.2
2022-10-04T14:12:31.247Z,17.2
2022-10-04T14:14:57.308Z,17.3
2022-10-04T14:17:23.357Z,17.3
2022-10-04T14:19:49.462Z,17.4
2022-10-04T14:22:14.601Z,17.6
2022-10-04T14:24:40.757Z,18
2022-10-04T14:27:06.728Z,18.6
2022-10-04T14:29:32.901Z,19.4
2022-10-04T14:31:58.919Z,20.1
2022-10-04T14:34:25.071Z,20.9
2022-10-04T14:36:51.217Z,21.6
2022-10-04T14:39:17.203Z,22.3
2022-10-04T14:41:43.335Z,22.9
2022-10-04T14:44:09.422Z,23.4
2022-10-04T14:46:35.680Z,23.9
2022-10-04T14:49:01.615Z,24.2
2022-10-04T14:51:27.730Z,24.4
2022-10-04T14:53:52.859Z,24.5
2022-10-04T14:56:18.889Z,24.6
2022-10-04T14:58:45.041Z,24.7
2022-10-04T15:01:11.075Z,24.6
2022-10-04T15:03:37.221Z,24.4
2022-10-04T15:06:03.267Z,24.1
2022-10-04T15:08:29.469Z,23.8
2022-10-04T15:10:55.457Z,23.4
2022-10-04T15:13:21.547Z,22.9
2022-10-04T15:15:47.660Z,22.5
2022-10-04T15:18:13.834Z,22.1
2022-10-04T15:20:39.862Z,21.7
2022-10-04T15:23:05.957Z,21.3
2022-10-04T15:25:31.140Z,21
2022-10-04T15:27:57.144Z,20.7
2022-10-04T15:30:23.230Z,20.4
2022-10-04T15:32:49.377Z,20.1
2022-10-04T15:35:15.450Z,19.8
2022-10-04T15:37:41.562Z,19.5
2022-10-04T15:40:07.617Z,19.3
2022-10-04T15:42:33.761Z,19.1
2022-10-04T15:44:59.793Z,18.8
2022-10-04T15:47:25.906Z,18.6
2022-10-04T15:49:52.000Z,18.4
2022-10-04T15:52:18.078Z,18.2
2022-10-04T15:54:44.258Z,18
2022-10-04T15:57:09.292Z,17.9
2022-10-04T15:59:35.438Z,17.7
2022-10-04T16:02:01.494Z,17.5
2022-10-04T16:04:27.585Z,17.4
2022-10-04T16:06:53.693Z,17.2
2022-10-04T16:09:19.770Z,17.1
2022-10-04T16:11:45.893Z,16.9
2022-10-04T16:14:12.092Z,16.8
2022-10-04T16:16:38.119Z,16.6
2022-10-04T16:19:04.164Z,16.5
2022-10-04T16:21:30.334Z,16.4
2022-10-04T16:23:56.418Z,16.2
2022-10-04T16:26:22.497Z,16.1
2022-10-04T16:28:47.575Z,15.9
2022-10-04T16:31:13.677Z,15.8
2022-10-04T16:33:39.781Z,15.7
2022-10-04T16:36:05.842Z,15.5
2022-10-04T16:38:31.956Z,15.4
2022-10-04T16:40:58.133Z,15.3
2022-10-04T16:43:24.142Z,15.2
2022-10-04T16:45:50.235Z,15.1
2022-10-04T16:48:16.351Z,15
2022-10-04T16:50:42.458Z,14.9
2022-10-04T16:53:08.485Z,14.8
2022-10-04T16:55:34.640Z,14.7
2022-10-04T16:58:00.687Z,14.6
2022-10-04T17:00:25.798Z,14.5
2022-10-04T17:02:51.917Z,14.4
2022-10-04T17:05:17.996Z,14.3
2022-10-04T17:07:44.155Z,14.2
2022-10-04T17:10:10.178Z,14.1
2022-10-04T17:12:36.332Z,14
2022-10-04T17:15:02.370Z,13.9
2022-10-04T17:17:28.523Z,13.8
2022-10-04T17:19:54.591Z,13.7
2022-10-04T17:22:20.647Z,13.6
2022-10-04T17:24:46.768Z,13.5
2022-10-04T17:27:12.938Z,13.4
2022-10-04T17:29:39.006Z,13.4
2022-10-04T17:32:04.106Z,13.3
2022-10-04T17:34:30.247Z,13.2
2022-10-04T17:36:56.271Z,13.1
2022-10-04T17:39:22.458Z,13.1
2022-10-04T17:41:48.449Z,13
2022-10-04T17:44:14.529Z,12.9
2022-10-04T17:46:40.700Z,12.9
2022-10-04T17:49:06.721Z,12.8
2022-10-04T17:51:32.951Z,12.7
2022-10-04T17:53:58.911Z,12.7
2022-10-04T17:56:25.016Z,12.6
2022-10-04T17:58:51.101Z,12.5
2022-10-04T18:01:17.191Z,12.5
2022-10-04T18:03:42.373Z,12.4
2022-10-04T18:06:08.441Z,12.4
2022-10-04T18:08:34.537Z,12.3
2022-10-04T18:11:00.629Z,12.3
2022-10-04T18:13:26.754Z,12.2
2022-10-04T18:15:52.787Z,12.1
2022-10-04T18:18:18.891Z,12.1
2022-10-04T18:20:45.054Z,12
2022-10-04T18:23:11.063Z,12
2022-10-04T18:25:37.241Z,11.9
2022-10-04T18:28:03.256Z,11.9
2022-10-04T18:30:29.433Z,11.8
2022-10-04T18:32:55.471Z,11.8
2022-10-04T18:35:20.553Z,11.8
2022-10-04T18:37:46.675Z,11.7
2022-10-04T18:40:12.756Z,11.7
2022-10-04T18:42:38.894Z,11.6
2022-10-04T18:45:04.941Z,11.6
2022-10-04T18:47:31.124Z,11.6
2022-10-04T18:49:57.145Z,11.5
2022-10-04T18:52:23.258Z,11.5
2022-10-04T18:54:49.385Z,11.4
2022-10-04T18:57:15.492Z,11.4
2022-10-04T18:59:41.535Z,11.4
2022-10-04T19:02:07.684Z,11.3
2022-10-04T19:04:33.739Z,11.3
2022-10-04T19:06:58.823Z,11.3
2022-10-04T19:09:24.971Z,11.2
2022-10-04T19:11:51.025Z,11.2
2022-10-04T19:14:17.184Z,11.2
2022-10-04T19:16:43.213Z,11.1
2022-10-04T19:19:09.319Z,11.1
2022-10-04T19:21:35.419Z,11.1
2022-10-04T19:24:01.518Z,11
2022-10-04T19:26:27.624Z,11
2022-10-04T19:28:53.683Z,11
2022-10-04T19:31:19.828Z,11
2022-10-04T19:33:45.928Z,10.9
2022-10-04T19:36:12.045Z,10.9
2022-10-04T19:38:37.134Z,10.9
2022-10-04T19:41:03.177Z,10.8
2022-10-04T19:43:29.315Z,10.8
2022-10-04T19:45:55.382Z,10.8
2022-10-04T19:48:21.510Z,10.7
2022-10-04T19:50:47.554Z,10.7
2022-10-04T19:53:13.739Z,10.7
2022-10-04T19:55:39.760Z,10.7
2022-10-04T19:58:05.844Z,10.6
2022-10-04T20:00:31.956Z,10.6
2022-10-04T20:02:58.029Z,10.6
2022-10-04T20:05:24.158Z,10.5
2022-10-04T20:07:50.232Z,10.5
2022-10-04T20:10:15.348Z,10.5
2022-10-04T20:12:41.441Z,10.4
2022-10-04T20:15:07.530Z,10.4
2022-10-04T20:17:33.648Z,10.4
2022-10-04T20:19:59.723Z,10.4
2022-10-04T20:22:25.850Z,10.3
2022-10-04T20:24:50.929Z,10.3
2022-10-04T20:27:17.112Z,10.3
2022-10-04T20:29:43.143Z,10.3
2022-10-04T20:32:09.205Z,10.3
2022-10-04T20:34:35.329Z,10.2
2022-10-04T20:37:01.440Z,10.2
2022-10-04T20:39:27.537Z,10.2
2022-10-04T20:41:53.583Z,10.2
2022-10-04T20:44:19.761Z,10.2
2022-10-04T20:46:45.806Z,10.2
2022-10-04T20:49:11.871Z,10.1
2022-10-04T20:51:38.122Z,10.1
2022-10-04T20:54:04.072Z,10.1
2022-10-04T20:56:29.224Z,10.1
2022-10-04T20:58:55.396Z,10.1
2022-10-04T21:01:21.425Z,10.1
2022-10-04T21:03:47.547Z,10
2022-10-04T21:06:13.594Z,10
2022-10-04T21:08:39.684Z,10
2022-10-04T21:11:05.776Z,10
2022-10-04T21:13:31.881Z,10
2022-10-04T21:15:57.970Z,9.9
2022-10-04T21:18:24.111Z,9.9
2022-10-04T21:20:50.148Z,9.9
2022-10-04T21:23:16.281Z,9.8
2022-10-04T21:25:42.327Z,9.8
2022-10-04T21:28:07.442Z,9.8
2022-10-04T21:30:33.566Z,9.8
2022-10-04T21:32:59.659Z,9.8
2022-10-04T21:35:25.771Z,9.7
2022-10-04T21:37:51.907Z,9.7
2022-10-04T21:40:17.961Z,9.7
2022-10-04T21:42:44.041Z,9.6
2022-10-04T21:45:10.162Z,9.6
2022-10-04T21:47:36.223Z,9.6
2022-10-04T21:50:02.300Z,9.6
2022-10-04T21:52:28.409Z,9.5
2022-10-04T21:54:54.486Z,9.5
2022-10-04T21:57:20.664Z,9.5
2022-10-04T21:59:45.792Z,9.5
2022-10-04T22:02:11.854Z,9.4
2022-10-04T22:04:37.895Z,9.4
2022-10-04T22:07:03.977Z,9.4
2022-10-04T22:09:30.098Z,9.4
2022-10-04T22:11:56.163Z,9.3
2022-10-04T22:14:22.302Z,9.3
2022-10-04T22:16:48.380Z,9.3
2022-10-04T22:19:14.578Z,9.3
2022-10-04T22:21:40.563Z,9.2
2022-10-04T22:24:06.760Z,9.2
2022-10-04T22:26:32.790Z,9.2
2022-10-04T22:28:58.920Z,9.1
2022-10-04T22:31:23.993Z,9.1
2022-10-04T22:33:50.047Z,9.1
2022-10-04T22:36:16.197Z,9.1
2022-10-04T22:38:42.237Z,9.1
2022-10-04T22:41:08.391Z,9.1
2022-10-04T22:43:34.440Z,9.1
2022-10-04T22:46:00.596Z,9.1
2022-10-04T22:48:26.644Z,9
2022-10-04T22:50:52.734Z,9
2022-10-04T22:53:18.836Z,9
2022-10-04T22:55:44.964Z,9
2022-10-04T22:58:11.042Z,8.9
2022-10-04T23:00:37.129Z,8.9
2022-10-04T23:03:02.236Z,8.9
2022-10-04T23:05:28.330Z,8.9
2022-10-04T23:07:54.437Z,8.9
2022-10-04T23:10:20.531Z,8.8
2022-10-04T23:12:46.602Z,8.8
2022-10-04T23:15:12.735Z,8.8
2022-10-04T23:17:38.819Z,8.8
2022-10-04T23:20:04.933Z,8.7
2022-10-04T23:22:30.996Z,8.7
2022-10-04T23:24:57.140Z,8.7
2022-10-04T23:27:23.194Z,8.7
2022-10-04T23:29:49.272Z,8.7
2022-10-04T23:32:15.381Z,8.6
2022-10-04T23:34:40.494Z,8.6
2022-10-04T23:37:06.625Z,8.6
2022-10-04T23:39:32.681Z,8.6
2022-10-04T23:41:58.820Z,8.6
2022-10-04T23:44:24.871Z,8.6
2022-10-04T23:46:51.027Z,8.6
2022-10-04T23:49:17.068Z,8.5
2022-10-04T23:51:43.194Z,8.5
2022-10-04T23:54:09.271Z,8.5
2022-10-04T23:56:35.354Z,8.5
2022-10-04T23:59:01.466Z,8.5
